sensor_id;sensor_type;location;lat;lon;timestamp;temperature;humidity
45685;DHT22;46836;48.388;16.210;2023-03-23T00:00:00;9.60;99.90
45685;DHT22;46836;48.388;16.210;2023-03-23T00:02:30;9.50;99.90
45685;DHT22;46836;48.388;16.210;2023-03-23T00:05:02;9.50;99.90
45685;DHT22;46836;48.388;16.210;2023-03-23T00:07:29;9.40;99.90
45685;DHT22;46836;48.388;16.210;2023-03-23T00:09:55;9.30;99.90
45685;DHT22;46836;48.388;16.210;2023-03-23T00:12:26;9.30;99.90
45685;DHT22;46836;48.388;16.210;2023-03-23T00:15:08;9.20;99.90
45685;DHT22;46836;48.388;16.210;2023-03-23T00:17:39;9.20;99.90
45685;DHT22;46836;48.388;16.210;2023-03-23T00:20:06;9.10;99.90
45685;DHT22;46836;48.388;16.210;2023-03-23T00:22:32;9.10;99.90
45685;DHT22;46836;48.388;16.210;2023-03-23T00:25:04;9.00;99.90
45685;DHT22;46836;48.388;16.210;2023-03-23T00:27:30;9.00;99.90
45685;DHT22;46836;48.388;16.210;2023-03-23T00:29:56;9.00;99.90
45685;DHT22;46836;48.388;16.210;2023-03-23T00:32:24;8.90;99.90
45685;DHT22;46836;48.388;16.210;2023-03-23T00:34:54;8.90;99.90
45685;DHT22;46836;48.388;16.210;2023-03-23T00:37:20;8.80;99.90
45685;DHT22;46836;48.388;16.210;2023-03-23T00:39:46;8.80;99.90
45685;DHT22;46836;48.388;16.210;2023-03-23T00:42:14;8.80;99.90
45685;DHT22;46836;48.388;16.210;2023-03-23T00:44:41;8.80;99.90
45685;DHT22;46836;48.388;16.210;2023-03-23T00:47:07;8.70;99.90
45685;DHT22;46836;48.388;16.210;2023-03-23T00:49:34;8.70;99.90
45685;DHT22;46836;48.388;16.210;2023-03-23T00:52:01;8.60;99.90
45685;DHT22;46836;48.388;16.210;2023-03-23T00:54:28;8.60;99.90
45685;DHT22;46836;48.388;16.210;2023-03-23T00:56:54;8.60;99.90
45685;DHT22;46836;48.388;16.210;2023-03-23T00:59:20;8.50;99.90
45685;DHT22;46836;48.388;16.210;2023-03-23T01:01:47;8.50;99.90
45685;DHT22;46836;48.388;16.210;2023-03-23T01:04:13;8.50;99.90
45685;DHT22;46836;48.388;16.210;2023-03-23T01:06:42;8.40;99.90
45685;DHT22;46836;48.388;16.210;2023-03-23T01:09:11;8.40;99.90
45685;DHT22;46836;48.388;16.210;2023-03-23T01:11:41;8.40;99.90
45685;DHT22;46836;48.388;16.210;2023-03-23T01:14:07;8.40;99.90
45685;DHT22;46836;48.388;16.210;2023-03-23T01:16:33;8.40;99.90
45685;DHT22;46836;48.388;16.210;2023-03-23T01:18:59;8.40;99.90
45685;DHT22;46836;48.388;16.210;2023-03-23T01:21:25;8.40;99.90
45685;DHT22;46836;48.388;16.210;2023-03-23T01:23:51;8.40;99.90
45685;DHT22;46836;48.388;16.210;2023-03-23T01:26:23;8.30;99.90
45685;DHT22;46836;48.388;16.210;2023-03-23T01:28:50;8.30;99.90
45685;DHT22;46836;48.388;16.210;2023-03-23T01:31:18;8.30;99.90
45685;DHT22;46836;48.388;16.210;2023-03-23T01:33:44;8.30;99.90
45685;DHT22;46836;48.388;16.210;2023-03-23T01:36:20;8.20;99.90
45685;DHT22;46836;48.388;16.210;2023-03-23T01:38:47;8.20;99.90
45685;DHT22;46836;48.388;16.210;2023-03-23T01:41:15;8.20;99.90
45685;DHT22;46836;48.388;16.210;2023-03-23T01:43:59;8.20;99.90
45685;DHT22;46836;48.388;16.210;2023-03-23T01:46:29;8.10;99.90
45685;DHT22;46836;48.388;16.210;2023-03-23T01:48:58;8.10;99.90
45685;DHT22;46836;48.388;16.210;2023-03-23T01:51:25;8.10;99.90
45685;DHT22;46836;48.388;16.210;2023-03-23T01:53:57;8.00;99.90
45685;DHT22;46836;48.388;16.210;2023-03-23T01:56:27;8.10;99.90
45685;DHT22;46836;48.388;16.210;2023-03-23T01:58:56;8.10;99.90
45685;DHT22;46836;48.388;16.210;2023-03-23T02:01:22;8.10;99.90
45685;DHT22;46836;48.388;16.210;2023-03-23T02:03:52;8.00;99.90
45685;DHT22;46836;48.388;16.210;2023-03-23T02:06:20;8.00;99.90
45685;DHT22;46836;48.388;16.210;2023-03-23T02:08:48;8.00;99.90
45685;DHT22;46836;48.388;16.210;2023-03-23T02:11:17;8.00;99.90
45685;DHT22;46836;48.388;16.210;2023-03-23T02:13:43;8.00;99.90
45685;DHT22;46836;48.388;16.210;2023-03-23T02:19:01;8.00;99.90
45685;DHT22;46836;48.388;16.210;2023-03-23T02:22:11;8.00;99.90
45685;DHT22;46836;48.388;16.210;2023-03-23T02:27:15;7.90;99.90
45685;DHT22;46836;48.388;16.210;2023-03-23T02:29:48;7.80;99.90
45685;DHT22;46836;48.388;16.210;2023-03-23T02:35:30;7.80;99.90
45685;DHT22;46836;48.388;16.210;2023-03-23T02:38:02;7.80;99.90
45685;DHT22;46836;48.388;16.210;2023-03-23T02:40:48;7.70;99.90
45685;DHT22;46836;48.388;16.210;2023-03-23T02:43:17;7.70;99.90
45685;DHT22;46836;48.388;16.210;2023-03-23T02:45:46;7.70;99.90
45685;DHT22;46836;48.388;16.210;2023-03-23T02:48:14;7.70;99.90
45685;DHT22;46836;48.388;16.210;2023-03-23T02:50:44;7.70;99.90
45685;DHT22;46836;48.388;16.210;2023-03-23T02:53:13;7.70;99.90
45685;DHT22;46836;48.388;16.210;2023-03-23T02:55:42;7.70;99.90
45685;DHT22;46836;48.388;16.210;2023-03-23T02:58:09;7.60;99.90
45685;DHT22;46836;48.388;16.210;2023-03-23T03:00:36;7.70;99.90
45685;DHT22;46836;48.388;16.210;2023-03-23T03:03:04;7.70;99.90
45685;DHT22;46836;48.388;16.210;2023-03-23T03:08:44;7.60;99.90
45685;DHT22;46836;48.388;16.210;2023-03-23T03:11:16;7.60;99.90
45685;DHT22;46836;48.388;16.210;2023-03-23T03:19:10;7.60;99.90
45685;DHT22;46836;48.388;16.210;2023-03-23T03:21:45;7.50;99.90
45685;DHT22;46836;48.388;16.210;2023-03-23T03:24:15;7.50;99.90
45685;DHT22;46836;48.388;16.210;2023-03-23T03:26:46;7.50;99.90
45685;DHT22;46836;48.388;16.210;2023-03-23T03:29:18;7.40;99.90
45685;DHT22;46836;48.388;16.210;2023-03-23T03:31:47;7.40;99.90
45685;DHT22;46836;48.388;16.210;2023-03-23T03:34:15;7.40;99.90
45685;DHT22;46836;48.388;16.210;2023-03-23T03:36:47;7.30;99.90
45685;DHT22;46836;48.388;16.210;2023-03-23T03:39:14;7.30;99.90
45685;DHT22;46836;48.388;16.210;2023-03-23T03:41:41;7.30;99.90
45685;DHT22;46836;48.388;16.210;2023-03-23T03:44:08;7.30;99.90
45685;DHT22;46836;48.388;16.210;2023-03-23T03:46:35;7.30;99.90
45685;DHT22;46836;48.388;16.210;2023-03-23T03:49:03;7.30;99.90
45685;DHT22;46836;48.388;16.210;2023-03-23T03:51:30;7.20;99.90
45685;DHT22;46836;48.388;16.210;2023-03-23T03:53:57;7.10;99.90
45685;DHT22;46836;48.388;16.210;2023-03-23T03:56:24;7.10;99.90
45685;DHT22;46836;48.388;16.210;2023-03-23T03:58:52;7.00;99.90
45685;DHT22;46836;48.388;16.210;2023-03-23T04:01:20;7.00;99.90
45685;DHT22;46836;48.388;16.210;2023-03-23T04:03:50;7.10;99.90
45685;DHT22;46836;48.388;16.210;2023-03-23T04:06:17;7.10;99.90
45685;DHT22;46836;48.388;16.210;2023-03-23T04:08:44;7.10;99.90
45685;DHT22;46836;48.388;16.210;2023-03-23T04:11:13;7.10;99.90
45685;DHT22;46836;48.388;16.210;2023-03-23T04:13:40;7.10;99.90
45685;DHT22;46836;48.388;16.210;2023-03-23T04:16:06;7.10;99.90
45685;DHT22;46836;48.388;16.210;2023-03-23T04:18:33;7.10;99.90
45685;DHT22;46836;48.388;16.210;2023-03-23T04:21:00;7.10;99.90
45685;DHT22;46836;48.388;16.210;2023-03-23T04:23:28;7.10;99.90
45685;DHT22;46836;48.388;16.210;2023-03-23T04:25:56;7.10;99.90
45685;DHT22;46836;48.388;16.210;2023-03-23T04:28:27;7.10;99.90
45685;DHT22;46836;48.388;16.210;2023-03-23T04:30:53;7.00;99.90
45685;DHT22;46836;48.388;16.210;2023-03-23T04:33:22;7.00;99.90
45685;DHT22;46836;48.388;16.210;2023-03-23T04:35:55;7.00;99.90
45685;DHT22;46836;48.388;16.210;2023-03-23T04:38:23;7.10;99.90
45685;DHT22;46836;48.388;16.210;2023-03-23T04:40:51;7.10;99.90
45685;DHT22;46836;48.388;16.210;2023-03-23T04:43:22;7.10;99.90
45685;DHT22;46836;48.388;16.210;2023-03-23T04:45:56;7.10;99.90
45685;DHT22;46836;48.388;16.210;2023-03-23T04:48:28;7.10;99.90
45685;DHT22;46836;48.388;16.210;2023-03-23T04:50:55;7.10;99.90
45685;DHT22;46836;48.388;16.210;2023-03-23T04:53:21;7.00;99.90
45685;DHT22;46836;48.388;16.210;2023-03-23T04:55:48;7.00;99.90
45685;DHT22;46836;48.388;16.210;2023-03-23T04:58:15;7.00;99.90
45685;DHT22;46836;48.388;16.210;2023-03-23T05:00:42;7.00;99.90
45685;DHT22;46836;48.388;16.210;2023-03-23T05:03:12;7.00;99.90
45685;DHT22;46836;48.388;16.210;2023-03-23T05:05:42;7.00;99.90
45685;DHT22;46836;48.388;16.210;2023-03-23T05:08:08;7.00;99.90
45685;DHT22;46836;48.388;16.210;2023-03-23T05:10:34;7.00;99.90
45685;DHT22;46836;48.388;16.210;2023-03-23T05:13:00;7.00;99.90
45685;DHT22;46836;48.388;16.210;2023-03-23T05:15:26;7.10;99.90
45685;DHT22;46836;48.388;16.210;2023-03-23T05:17:52;7.10;99.90
45685;DHT22;46836;48.388;16.210;2023-03-23T05:20:18;7.20;99.90
45685;DHT22;46836;48.388;16.210;2023-03-23T05:22:46;7.20;99.90
45685;DHT22;46836;48.388;16.210;2023-03-23T05:25:16;7.20;99.90
45685;DHT22;46836;48.388;16.210;2023-03-23T05:27:45;7.30;99.90
45685;DHT22;46836;48.388;16.210;2023-03-23T05:30:15;7.40;99.90
45685;DHT22;46836;48.388;16.210;2023-03-23T05:32:48;7.50;99.90
45685;DHT22;46836;48.388;16.210;2023-03-23T05:35:17;7.50;99.90
45685;DHT22;46836;48.388;16.210;2023-03-23T05:37:44;7.60;99.90
45685;DHT22;46836;48.388;16.210;2023-03-23T05:40:11;7.70;99.90
45685;DHT22;46836;48.388;16.210;2023-03-23T05:42:38;7.80;99.90
45685;DHT22;46836;48.388;16.210;2023-03-23T05:45:08;7.90;99.90
45685;DHT22;46836;48.388;16.210;2023-03-23T05:47:37;8.00;99.90
45685;DHT22;46836;48.388;16.210;2023-03-23T05:50:03;8.00;99.90
45685;DHT22;46836;48.388;16.210;2023-03-23T05:52:30;8.10;99.90
45685;DHT22;46836;48.388;16.210;2023-03-23T05:54:58;8.10;99.90
45685;DHT22;46836;48.388;16.210;2023-03-23T05:57:24;8.20;99.90
45685;DHT22;46836;48.388;16.210;2023-03-23T05:59:50;8.30;99.90
45685;DHT22;46836;48.388;16.210;2023-03-23T06:02:16;8.40;99.90
45685;DHT22;46836;48.388;16.210;2023-03-23T06:04:42;8.40;99.90
45685;DHT22;46836;48.388;16.210;2023-03-23T06:07:08;8.50;99.90
45685;DHT22;46836;48.388;16.210;2023-03-23T06:09:39;8.50;99.90
45685;DHT22;46836;48.388;16.210;2023-03-23T06:12:06;8.60;99.90
45685;DHT22;46836;48.388;16.210;2023-03-23T06:14:32;8.70;99.90
45685;DHT22;46836;48.388;16.210;2023-03-23T06:16:59;8.80;99.90
45685;DHT22;46836;48.388;16.210;2023-03-23T06:19:25;8.90;99.90
45685;DHT22;46836;48.388;16.210;2023-03-23T06:21:55;9.00;99.90
45685;DHT22;46836;48.388;16.210;2023-03-23T06:24:21;9.00;99.90
45685;DHT22;46836;48.388;16.210;2023-03-23T06:26:47;9.10;99.90
45685;DHT22;46836;48.388;16.210;2023-03-23T06:29:14;9.20;99.90
45685;DHT22;46836;48.388;16.210;2023-03-23T06:31:43;9.30;99.90
45685;DHT22;46836;48.388;16.210;2023-03-23T06:34:10;9.40;99.90
45685;DHT22;46836;48.388;16.210;2023-03-23T06:36:37;9.50;99.90
45685;DHT22;46836;48.388;16.210;2023-03-23T06:39:04;9.50;99.90
45685;DHT22;46836;48.388;16.210;2023-03-23T06:41:33;9.60;99.90
45685;DHT22;46836;48.388;16.210;2023-03-23T06:44:00;9.60;99.90
45685;DHT22;46836;48.388;16.210;2023-03-23T06:46:27;9.70;99.90
45685;DHT22;46836;48.388;16.210;2023-03-23T06:48:54;9.70;99.90
45685;DHT22;46836;48.388;16.210;2023-03-23T06:51:20;9.80;99.90
45685;DHT22;46836;48.388;16.210;2023-03-23T06:53:46;9.80;99.90
45685;DHT22;46836;48.388;16.210;2023-03-23T06:56:13;9.90;99.90
45685;DHT22;46836;48.388;16.210;2023-03-23T06:58:39;9.90;99.90
45685;DHT22;46836;48.388;16.210;2023-03-23T07:01:07;10.00;99.90
45685;DHT22;46836;48.388;16.210;2023-03-23T07:03:35;10.10;99.90
45685;DHT22;46836;48.388;16.210;2023-03-23T07:06:03;10.10;99.90
45685;DHT22;46836;48.388;16.210;2023-03-23T07:08:29;10.20;99.90
45685;DHT22;46836;48.388;16.210;2023-03-23T07:10:56;10.30;99.90
45685;DHT22;46836;48.388;16.210;2023-03-23T07:13:22;10.30;99.90
45685;DHT22;46836;48.388;16.210;2023-03-23T07:15:48;10.40;99.90
45685;DHT22;46836;48.388;16.210;2023-03-23T07:18:16;10.50;99.90
45685;DHT22;46836;48.388;16.210;2023-03-23T07:20:41;10.50;99.90
45685;DHT22;46836;48.388;16.210;2023-03-23T07:23:08;10.50;99.90
45685;DHT22;46836;48.388;16.210;2023-03-23T07:25:35;10.60;99.90
45685;DHT22;46836;48.388;16.210;2023-03-23T07:28:02;10.70;99.90
45685;DHT22;46836;48.388;16.210;2023-03-23T07:30:28;10.70;99.90
45685;DHT22;46836;48.388;16.210;2023-03-23T07:32:57;10.80;99.90
45685;DHT22;46836;48.388;16.210;2023-03-23T07:35:24;10.80;99.90
45685;DHT22;46836;48.388;16.210;2023-03-23T07:37:51;10.90;99.90
45685;DHT22;46836;48.388;16.210;2023-03-23T07:40:18;10.90;99.90
45685;DHT22;46836;48.388;16.210;2023-03-23T07:42:46;11.00;99.90
45685;DHT22;46836;48.388;16.210;2023-03-23T07:45:15;11.00;99.90
45685;DHT22;46836;48.388;16.210;2023-03-23T07:47:41;11.10;99.90
45685;DHT22;46836;48.388;16.210;2023-03-23T07:50:08;11.10;99.90
45685;DHT22;46836;48.388;16.210;2023-03-23T07:52:35;11.10;99.90
45685;DHT22;46836;48.388;16.210;2023-03-23T07:55:02;11.10;99.90
45685;DHT22;46836;48.388;16.210;2023-03-23T07:57:29;11.10;99.90
45685;DHT22;46836;48.388;16.210;2023-03-23T07:59:55;11.10;99.90
45685;DHT22;46836;48.388;16.210;2023-03-23T08:02:23;11.10;99.90
45685;DHT22;46836;48.388;16.210;2023-03-23T08:04:49;11.10;99.90
45685;DHT22;46836;48.388;16.210;2023-03-23T08:07:15;11.10;99.90
45685;DHT22;46836;48.388;16.210;2023-03-23T08:09:48;11.10;99.90
45685;DHT22;46836;48.388;16.210;2023-03-23T08:12:14;11.20;99.90
45685;DHT22;46836;48.388;16.210;2023-03-23T08:14:40;11.20;99.90
45685;DHT22;46836;48.388;16.210;2023-03-23T08:17:07;11.40;99.90
45685;DHT22;46836;48.388;16.210;2023-03-23T08:19:35;11.60;99.90
45685;DHT22;46836;48.388;16.210;2023-03-23T08:22:05;11.80;99.90
45685;DHT22;46836;48.388;16.210;2023-03-23T08:24:32;12.10;99.90
45685;DHT22;46836;48.388;16.210;2023-03-23T08:26:59;12.20;99.90
45685;DHT22;46836;48.388;16.210;2023-03-23T08:29:26;12.40;99.90
45685;DHT22;46836;48.388;16.210;2023-03-23T08:31:52;12.60;99.90
45685;DHT22;46836;48.388;16.210;2023-03-23T08:34:19;12.80;99.90
45685;DHT22;46836;48.388;16.210;2023-03-23T08:36:45;13.00;99.90
45685;DHT22;46836;48.388;16.210;2023-03-23T08:39:12;13.20;99.90
45685;DHT22;46836;48.388;16.210;2023-03-23T08:41:40;13.30;99.90
45685;DHT22;46836;48.388;16.210;2023-03-23T08:44:06;13.50;99.90
45685;DHT22;46836;48.388;16.210;2023-03-23T08:46:34;13.50;99.90
45685;DHT22;46836;48.388;16.210;2023-03-23T08:49:00;13.60;99.90
45685;DHT22;46836;48.388;16.210;2023-03-23T08:51:26;13.80;99.90
45685;DHT22;46836;48.388;16.210;2023-03-23T08:53:52;14.00;99.90
45685;DHT22;46836;48.388;16.210;2023-03-23T08:56:18;14.20;99.90
45685;DHT22;46836;48.388;16.210;2023-03-23T08:58:44;14.30;99.90
45685;DHT22;46836;48.388;16.210;2023-03-23T09:01:10;14.50;99.90
45685;DHT22;46836;48.388;16.210;2023-03-23T09:03:36;14.60;99.90
45685;DHT22;46836;48.388;16.210;2023-03-23T09:06:06;14.80;99.90
45685;DHT22;46836;48.388;16.210;2023-03-23T09:08:32;15.00;99.90
45685;DHT22;46836;48.388;16.210;2023-03-23T09:10:59;15.10;99.90
45685;DHT22;46836;48.388;16.210;2023-03-23T09:13:25;15.30;99.90
45685;DHT22;46836;48.388;16.210;2023-03-23T09:15:51;15.40;99.90
45685;DHT22;46836;48.388;16.210;2023-03-23T09:18:18;15.50;99.90
45685;DHT22;46836;48.388;16.210;2023-03-23T09:20:45;15.60;99.90
45685;DHT22;46836;48.388;16.210;2023-03-23T09:23:12;15.70;99.90
45685;DHT22;46836;48.388;16.210;2023-03-23T09:25:39;15.80;99.90
45685;DHT22;46836;48.388;16.210;2023-03-23T09:28:05;15.90;99.90
45685;DHT22;46836;48.388;16.210;2023-03-23T09:30:33;16.00;99.90
45685;DHT22;46836;48.388;16.210;2023-03-23T09:33:01;16.20;99.90
45685;DHT22;46836;48.388;16.210;2023-03-23T09:35:28;16.40;99.90
45685;DHT22;46836;48.388;16.210;2023-03-23T09:37:54;16.50;99.90
45685;DHT22;46836;48.388;16.210;2023-03-23T09:40:24;16.70;99.90
45685;DHT22;46836;48.388;16.210;2023-03-23T09:49:11;17.10;99.90
45685;DHT22;46836;48.388;16.210;2023-03-23T09:51:48;17.30;99.90
45685;DHT22;46836;48.388;16.210;2023-03-23T09:54:27;17.50;99.90
45685;DHT22;46836;48.388;16.210;2023-03-23T09:56:55;17.70;99.90
45685;DHT22;46836;48.388;16.210;2023-03-23T10:02:38;18.00;99.90
45685;DHT22;46836;48.388;16.210;2023-03-23T10:05:34;18.20;99.90
45685;DHT22;46836;48.388;16.210;2023-03-23T10:08:09;18.40;99.90
45685;DHT22;46836;48.388;16.210;2023-03-23T10:16:07;18.80;99.90
45685;DHT22;46836;48.388;16.210;2023-03-23T10:18:58;18.90;99.90
45685;DHT22;46836;48.388;16.210;2023-03-23T10:21:28;19.00;99.90
45685;DHT22;46836;48.388;16.210;2023-03-23T10:24:09;19.20;99.90
45685;DHT22;46836;48.388;16.210;2023-03-23T10:29:12;19.50;99.90
45685;DHT22;46836;48.388;16.210;2023-03-23T10:32:16;19.70;99.90
45685;DHT22;46836;48.388;16.210;2023-03-23T10:34:56;19.80;99.90
45685;DHT22;46836;48.388;16.210;2023-03-23T10:37:29;20.10;99.90
45685;DHT22;46836;48.388;16.210;2023-03-23T10:40:00;20.30;99.90
45685;DHT22;46836;48.388;16.210;2023-03-23T10:42:31;20.50;99.90
45685;DHT22;46836;48.388;16.210;2023-03-23T10:45:00;20.60;99.90
45685;DHT22;46836;48.388;16.210;2023-03-23T10:47:38;20.70;99.90
45685;DHT22;46836;48.388;16.210;2023-03-23T10:50:06;20.70;99.90
45685;DHT22;46836;48.388;16.210;2023-03-23T10:57:46;20.60;99.90
45685;DHT22;46836;48.388;16.210;2023-03-23T11:00:19;20.60;99.90
45685;DHT22;46836;48.388;16.210;2023-03-23T11:03:45;20.60;99.90
45685;DHT22;46836;48.388;16.210;2023-03-23T11:06:00;20.50;99.90
45685;DHT22;46836;48.388;16.210;2023-03-23T11:08:35;20.50;99.90
45685;DHT22;46836;48.388;16.210;2023-03-23T11:11:11;20.40;99.90
45685;DHT22;46836;48.388;16.210;2023-03-23T11:13:43;20.50;99.90
45685;DHT22;46836;48.388;16.210;2023-03-23T11:16:25;20.60;99.90
45685;DHT22;46836;48.388;16.210;2023-03-23T11:18:52;20.70;99.90
45685;DHT22;46836;48.388;16.210;2023-03-23T11:21:20;20.70;99.90
45685;DHT22;46836;48.388;16.210;2023-03-23T11:23:57;20.70;99.90
45685;DHT22;46836;48.388;16.210;2023-03-23T11:26:29;20.80;99.90
45685;DHT22;46836;48.388;16.210;2023-03-23T11:29:04;20.80;99.90
45685;DHT22;46836;48.388;16.210;2023-03-23T11:31:33;20.90;99.90
45685;DHT22;46836;48.388;16.210;2023-03-23T11:34:14;21.00;99.90
45685;DHT22;46836;48.388;16.210;2023-03-23T11:36:54;21.00;99.90
45685;DHT22;46836;48.388;16.210;2023-03-23T11:39:33;21.10;99.90
45685;DHT22;46836;48.388;16.210;2023-03-23T11:42:02;21.00;99.90
45685;DHT22;46836;48.388;16.210;2023-03-23T11:44:42;21.00;99.90
45685;DHT22;46836;48.388;16.210;2023-03-23T11:47:30;20.90;99.90
45685;DHT22;46836;48.388;16.210;2023-03-23T11:53:19;20.80;99.90
45685;DHT22;46836;48.388;16.210;2023-03-23T11:58:45;20.80;98.70
45685;DHT22;46836;48.388;16.210;2023-03-23T12:15:53;21.40;95.90
45685;DHT22;46836;48.388;16.210;2023-03-23T12:21:12;21.70;96.10
45685;DHT22;46836;48.388;16.210;2023-03-23T12:23:57;21.70;97.60
45685;DHT22;46836;48.388;16.210;2023-03-23T12:26:31;21.60;95.50
45685;DHT22;46836;48.388;16.210;2023-03-23T12:42:47;22.00;94.60
45685;DHT22;46836;48.388;16.210;2023-03-23T12:48:41;22.50;93.40
45685;DHT22;46836;48.388;16.210;2023-03-23T12:53:52;22.80;94.30
45685;DHT22;46836;48.388;16.210;2023-03-23T12:56:39;22.90;94.60
45685;DHT22;46836;48.388;16.210;2023-03-23T12:59:14;23.00;93.60
45685;DHT22;46836;48.388;16.210;2023-03-23T13:01:46;23.10;94.30
45685;DHT22;46836;48.388;16.210;2023-03-23T13:06:45;23.20;94.20
45685;DHT22;46836;48.388;16.210;2023-03-23T13:09:32;23.20;94.20
45685;DHT22;46836;48.388;16.210;2023-03-23T13:12:03;23.20;92.00
45685;DHT22;46836;48.388;16.210;2023-03-23T13:17:49;23.40;93.60
45685;DHT22;46836;48.388;16.210;2023-03-23T13:20:31;23.60;92.20
45685;DHT22;46836;48.388;16.210;2023-03-23T13:28:02;23.70;92.20
45685;DHT22;46836;48.388;16.210;2023-03-23T13:30:29;23.70;93.50
45685;DHT22;46836;48.388;16.210;2023-03-23T13:33:11;23.70;92.80
45685;DHT22;46836;48.388;16.210;2023-03-23T13:35:40;23.70;91.00
45685;DHT22;46836;48.388;16.210;2023-03-23T13:38:23;23.60;92.00
45685;DHT22;46836;48.388;16.210;2023-03-23T13:40:50;23.20;88.40
45685;DHT22;46836;48.388;16.210;2023-03-23T13:43:32;23.00;91.90
45685;DHT22;46836;48.388;16.210;2023-03-23T13:46:24;22.70;90.10
45685;DHT22;46836;48.388;16.210;2023-03-23T13:49:18;22.60;89.70
45685;DHT22;46836;48.388;16.210;2023-03-23T13:56:47;22.50;92.40
45685;DHT22;46836;48.388;16.210;2023-03-23T13:59:16;22.40;91.30
45685;DHT22;46836;48.388;16.210;2023-03-23T14:01:43;22.30;91.60
45685;DHT22;46836;48.388;16.210;2023-03-23T14:04:17;22.30;92.40
45685;DHT22;46836;48.388;16.210;2023-03-23T14:06:48;22.30;91.30
45685;DHT22;46836;48.388;16.210;2023-03-23T14:09:19;22.30;91.90
45685;DHT22;46836;48.388;16.210;2023-03-23T14:11:57;22.30;91.30
45685;DHT22;46836;48.388;16.210;2023-03-23T14:14:27;22.30;91.30
45685;DHT22;46836;48.388;16.210;2023-03-23T14:17:16;22.30;90.80
45685;DHT22;46836;48.388;16.210;2023-03-23T14:19:47;22.30;90.60
45685;DHT22;46836;48.388;16.210;2023-03-23T14:22:23;22.30;91.20
45685;DHT22;46836;48.388;16.210;2023-03-23T14:24:50;22.20;90.80
45685;DHT22;46836;48.388;16.210;2023-03-23T14:27:18;22.10;91.40
45685;DHT22;46836;48.388;16.210;2023-03-23T14:29:45;22.10;92.20
45685;DHT22;46836;48.388;16.210;2023-03-23T14:32:17;22.00;92.20
45685;DHT22;46836;48.388;16.210;2023-03-23T14:34:47;22.00;91.50
45685;DHT22;46836;48.388;16.210;2023-03-23T14:37:14;22.10;92.00
45685;DHT22;46836;48.388;16.210;2023-03-23T14:39:54;22.20;92.00
45685;DHT22;46836;48.388;16.210;2023-03-23T14:42:31;22.20;91.70
45685;DHT22;46836;48.388;16.210;2023-03-23T14:44:59;22.10;91.40
45685;DHT22;46836;48.388;16.210;2023-03-23T14:47:51;22.00;92.30
45685;DHT22;46836;48.388;16.210;2023-03-23T14:50:40;22.00;92.00
45685;DHT22;46836;48.388;16.210;2023-03-23T14:56:00;21.80;91.20
45685;DHT22;46836;48.388;16.210;2023-03-23T14:58:28;21.80;92.00
45685;DHT22;46836;48.388;16.210;2023-03-23T15:01:04;21.80;92.50
45685;DHT22;46836;48.388;16.210;2023-03-23T15:03:35;21.80;92.60
45685;DHT22;46836;48.388;16.210;2023-03-23T15:06:06;21.80;92.10
45685;DHT22;46836;48.388;16.210;2023-03-23T15:08:35;21.80;92.10
45685;DHT22;46836;48.388;16.210;2023-03-23T15:13:30;21.70;91.70
45685;DHT22;46836;48.388;16.210;2023-03-23T15:16:27;21.70;92.30
45685;DHT22;46836;48.388;16.210;2023-03-23T15:19:03;21.70;90.30
45685;DHT22;46836;48.388;16.210;2023-03-23T15:21:50;21.70;91.10
45685;DHT22;46836;48.388;16.210;2023-03-23T15:24:31;21.70;90.40
45685;DHT22;46836;48.388;16.210;2023-03-23T15:27:16;21.60;91.20
45685;DHT22;46836;48.388;16.210;2023-03-23T15:32:13;21.60;91.30
45685;DHT22;46836;48.388;16.210;2023-03-23T15:34:39;21.60;91.90
45685;DHT22;46836;48.388;16.210;2023-03-23T15:37:29;21.60;91.90
45685;DHT22;46836;48.388;16.210;2023-03-23T15:39:57;21.70;90.60
45685;DHT22;46836;48.388;16.210;2023-03-23T15:42:28;21.80;91.50
45685;DHT22;46836;48.388;16.210;2023-03-23T15:53:36;21.70;91.00
45685;DHT22;46836;48.388;16.210;2023-03-23T15:56:07;21.60;90.10
45685;DHT22;46836;48.388;16.210;2023-03-23T15:58:35;21.50;91.50
45685;DHT22;46836;48.388;16.210;2023-03-23T16:01:06;21.40;91.50
45685;DHT22;46836;48.388;16.210;2023-03-23T16:03:42;21.40;91.40
45685;DHT22;46836;48.388;16.210;2023-03-23T16:06:12;21.30;91.20
45685;DHT22;46836;48.388;16.210;2023-03-23T16:08:52;21.30;91.50
45685;DHT22;46836;48.388;16.210;2023-03-23T16:11:22;21.20;91.20
45685;DHT22;46836;48.388;16.210;2023-03-23T16:13:49;21.10;91.40
45685;DHT22;46836;48.388;16.210;2023-03-23T16:16:21;21.00;91.30
45685;DHT22;46836;48.388;16.210;2023-03-23T16:18:49;21.00;91.30
45685;DHT22;46836;48.388;16.210;2023-03-23T16:21:16;20.90;91.40
45685;DHT22;46836;48.388;16.210;2023-03-23T16:23:43;20.80;91.30
45685;DHT22;46836;48.388;16.210;2023-03-23T16:26:13;20.80;91.30
45685;DHT22;46836;48.388;16.210;2023-03-23T16:28:41;20.70;90.90
45685;DHT22;46836;48.388;16.210;2023-03-23T16:31:09;20.70;91.00
45685;DHT22;46836;48.388;16.210;2023-03-23T16:33:36;20.60;90.90
45685;DHT22;46836;48.388;16.210;2023-03-23T16:36:04;20.50;91.10
45685;DHT22;46836;48.388;16.210;2023-03-23T16:38:31;20.50;91.10
45685;DHT22;46836;48.388;16.210;2023-03-23T16:41:15;20.40;91.10
45685;DHT22;46836;48.388;16.210;2023-03-23T16:43:42;20.40;91.10
45685;DHT22;46836;48.388;16.210;2023-03-23T16:46:10;20.30;91.20
45685;DHT22;46836;48.388;16.210;2023-03-23T16:48:40;20.30;91.30
45685;DHT22;46836;48.388;16.210;2023-03-23T16:51:07;20.20;91.30
45685;DHT22;46836;48.388;16.210;2023-03-23T16:53:34;20.10;91.30
45685;DHT22;46836;48.388;16.210;2023-03-23T16:56:03;20.10;91.00
45685;DHT22;46836;48.388;16.210;2023-03-23T16:58:30;20.00;91.00
45685;DHT22;46836;48.388;16.210;2023-03-23T17:00:57;20.00;90.80
45685;DHT22;46836;48.388;16.210;2023-03-23T17:03:24;19.90;90.90
45685;DHT22;46836;48.388;16.210;2023-03-23T17:05:52;19.80;90.90
45685;DHT22;46836;48.388;16.210;2023-03-23T17:08:19;19.80;90.80
45685;DHT22;46836;48.388;16.210;2023-03-23T17:10:47;19.70;90.80
45685;DHT22;46836;48.388;16.210;2023-03-23T17:13:14;19.60;90.80
45685;DHT22;46836;48.388;16.210;2023-03-23T17:15:43;19.60;90.70
45685;DHT22;46836;48.388;16.210;2023-03-23T17:18:13;19.50;90.60
45685;DHT22;46836;48.388;16.210;2023-03-23T17:20:41;19.50;90.70
45685;DHT22;46836;48.388;16.210;2023-03-23T17:23:09;19.40;90.80
45685;DHT22;46836;48.388;16.210;2023-03-23T17:25:36;19.30;90.90
45685;DHT22;46836;48.388;16.210;2023-03-23T17:28:06;19.30;90.90
45685;DHT22;46836;48.388;16.210;2023-03-23T17:30:34;19.30;90.80
45685;DHT22;46836;48.388;16.210;2023-03-23T17:33:01;19.20;91.00
45685;DHT22;46836;48.388;16.210;2023-03-23T17:35:29;19.20;90.90